Southampton, New Jersey
Current Conditions -  °F | °C
As of 5:54 PM on Saturday 25 Oct 2014 (Local Time) from KVAY Reporting Station
Clear Clear  
Wind Chill: 18°   Ceiling: Unl
Heat Index: 18°   Visibility: 10mi
Dew Point:   Wind: 5mph
Humidity: 50%   Direction: 220°SW
Pressure: 29.69"   Gusts: NA
Location:  39.7955°N, 74.6301°W
Report Text: KVAY 252154Z AUTO 22004KT 10SM CLR 18/07 A2969 RMK AO2 SLP053 T01780072
Loading
Personal Weather Stations






























Interactive Weather Map
Tropical Storm Tracking
New forecast layout! Learn more

10-Day Weather Forecast

Advertisements
Track Severe Weather on mobile